Wrightsville, Ohio
Current Conditions -  °F | °C
As of 2:15 PM on Sunday 21 Dec 2014 (Local Time) from KFGX Reporting Station
Clear Clear  
Wind Chill: -2°   Ceiling: Unl
Heat Index:   Visibility: 10mi
Dew Point: -2°   Wind: 7mph
Humidity: 76%   Direction: 80°E
Pressure: 30.21"   Gusts: NA
Location:  38.7042°N, 83.6081°W
Report Text: KFGX 211915Z AUTO 08006KT 10SM CLR 02/M02 A3021 RMK AO2 T00161023
Loading
Personal Weather Stations






























Interactive Weather Map New forecast layout! Learn more

10-Day Weather Forecast

Advertisements
Track Severe Weather on mobile